Time;durP1;ratioP1;P1;durP2;ratioP2;P2;SDS_P1;SDS_P2;PMS_P1;PMS_P2;Temp;Humidity;BMP_temperature;BMP_pressure;BME280_temperature;BME280_humidity;BME280_pressure;Samples;Min_cycle;Max_cycle;Signal;HPM_P1;HPM_P2
2021/08/28 00:00:00;;;;;;;13.32;3.97;;;16.50;99.90;;;;;;5008756;28;20203;-88
2021/08/28 00:02:27;;;;;;;11.73;4.10;;;16.50;99.90;;;;;;5009606;28;20242;-81
2021/08/28 00:04:53;;;;;;;11.05;3.88;;;16.40;99.90;;;;;;5008929;28;20209;-86
2021/08/28 00:07:20;;;;;;;8.88;4.15;;;16.40;99.90;;;;;;5009500;28;20241;-83
2021/08/28 00:09:47;;;;;;;14.40;4.63;;;16.50;99.90;;;;;;5008601;28;20214;-90
2021/08/28 00:12:14;;;;;;;11.43;3.90;;;16.50;99.90;;;;;;5009779;28;20210;-87
2021/08/28 00:14:42;;;;;;;10.13;4.00;;;16.50;99.90;;;;;;5008268;28;20228;-80
2021/08/28 00:17:09;;;;;;;9.32;3.72;;;16.50;99.90;;;;;;4998474;28;20208;-82
2021/08/28 00:19:36;;;;;;;15.73;4.80;;;16.50;99.90;;;;;;4990276;28;20200;-88
2021/08/28 00:22:03;;;;;;;13.33;4.37;;;16.60;99.90;;;;;;4989716;28;20230;-81
2021/08/28 00:24:29;;;;;;;11.75;4.35;;;16.50;99.90;;;;;;4989287;28;20515;-87
2021/08/28 00:26:56;;;;;;;9.23;3.80;;;16.60;99.90;;;;;;4989842;28;20208;-86
2021/08/28 00:29:23;;;;;;;13.70;4.63;;;16.50;99.90;;;;;;4996722;28;20211;-87
2021/08/28 00:31:51;;;;;;;8.77;3.75;;;16.50;99.90;;;;;;5008283;28;20203;-78
2021/08/28 00:34:18;;;;;;;11.37;4.17;;;16.60;99.90;;;;;;5008290;28;20596;-86
2021/08/28 00:36:45;;;;;;;10.35;4.00;;;16.50;99.90;;;;;;5008581;28;20210;-84
2021/08/28 00:39:12;;;;;;;10.93;3.88;;;16.60;99.90;;;;;;4988375;28;20223;-86
2021/08/28 00:41:38;;;;;;;9.13;3.80;;;16.60;99.90;;;;;;4986892;28;20215;-84
2021/08/28 00:44:05;;;;;;;13.17;4.70;;;16.60;99.90;;;;;;4986696;28;20215;-82
2021/08/28 00:46:32;;;;;;;9.38;3.58;;;16.60;99.90;;;;;;4988008;28;20207;-87
2021/08/28 00:49:01;;;;;;;13.93;4.50;;;16.60;99.90;;;;;;4997062;28;20242;-85
2021/08/28 00:51:27;;;;;;;14.43;4.95;;;16.60;99.90;;;;;;5007308;28;20199;-85
2021/08/28 00:53:54;;;;;;;12.73;5.07;;;16.70;99.90;;;;;;4991930;28;20208;-90
2021/08/28 00:56:21;;;;;;;15.30;4.75;;;16.70;99.90;;;;;;4989731;28;20219;-80
2021/08/28 00:58:48;;;;;;;10.40;4.00;;;16.80;99.90;;;;;;4991122;28;20208;-85
2021/08/28 01:01:19;;;;;;;14.90;4.38;;;16.80;99.90;;;;;;5003795;28;20234;-84
2021/08/28 01:03:53;;;;;;;14.45;4.93;;;16.70;99.90;;;;;;5009146;28;20222;-81
2021/08/28 01:06:32;;;;;;;16.23;3.97;;;16.70;99.90;;;;;;5009089;28;20199;-86
2021/08/28 01:09:05;;;;;;;7.75;3.65;;;16.70;99.90;;;;;;5000061;28;20218;-80
2021/08/28 01:11:38;;;;;;;13.77;4.63;;;16.70;99.90;;;;;;4989206;28;20246;-82
2021/08/28 01:14:10;;;;;;;12.20;4.13;;;16.60;99.90;;;;;;4989601;28;20285;-82
2021/08/28 01:16:38;;;;;;;9.50;4.07;;;16.60;99.90;;;;;;4998842;28;20202;-78
2021/08/28 01:19:05;;;;;;;12.95;4.55;;;16.60;99.90;;;;;;5008793;28;20226;-82
2021/08/28 01:21:36;;;;;;;9.20;4.13;;;16.50;99.90;;;;;;4995538;28;20228;-78
2021/08/28 01:24:06;;;;;;;12.25;4.25;;;16.50;99.90;;;;;;4989729;28;20745;-78
2021/08/28 01:26:38;;;;;;;10.25;3.70;;;16.50;99.90;;;;;;4990001;28;20219;-82
2021/08/28 01:29:19;;;;;;;13.43;3.93;;;16.50;99.90;;;;;;4989692;28;20211;-79
2021/08/28 01:31:47;;;;;;;11.97;3.77;;;16.50;99.90;;;;;;4989584;28;20199;-86
2021/08/28 01:34:15;;;;;;;10.63;4.43;;;16.50;99.90;;;;;;4990278;28;20215;-85
2021/08/28 01:36:42;;;;;;;11.90;4.00;;;16.50;99.90;;;;;;4989985;28;20200;-81
2021/08/28 01:39:11;;;;;;;11.38;4.03;;;16.50;99.90;;;;;;4989701;28;20508;-83
2021/08/28 01:41:39;;;;;;;11.43;4.13;;;16.50;99.90;;;;;;4990483;28;20255;-79
2021/08/28 01:44:08;;;;;;;7.20;3.67;;;16.60;99.90;;;;;;4989869;28;20207;-82
2021/08/28 01:46:38;;;;;;;8.23;3.83;;;16.60;99.90;;;;;;4991097;28;20223;-87
2021/08/28 01:49:06;;;;;;;9.37;3.23;;;16.60;99.90;;;;;;5005359;28;20241;-87
2021/08/28 01:51:33;;;;;;;5.15;3.17;;;16.60;99.90;;;;;;5009829;28;20199;-83
2021/08/28 01:54:00;;;;;;;9.60;3.20;;;16.50;99.90;;;;;;4992859;28;20612;-88
2021/08/28 01:56:27;;;;;;;6.93;2.87;;;16.50;99.90;;;;;;5000034;28;20211;-80
2021/08/28 01:58:57;;;;;;;6.10;2.80;;;16.50;99.90;;;;;;5009900;28;20257;-90
2021/08/28 02:01:24;;;;;;;8.70;3.43;;;16.50;99.90;;;;;;5009316;28;20203;-84
2021/08/28 02:03:52;;;;;;;10.63;3.20;;;16.40;99.90;;;;;;5010509;28;20245;-83
2021/08/28 02:06:24;;;;;;;4.60;2.85;;;16.40;99.90;;;;;;5010111;28;20219;-81
2021/08/28 02:08:58;;;;;;;4.63;2.80;;;16.40;99.90;;;;;;5016248;23;20318;-87
2021/08/28 02:11:30;;;;;;;6.78;3.15;;;16.40;99.90;;;;;;4973754;28;20232;-82
2021/08/28 02:14:03;;;;;;;9.98;3.05;;;16.30;99.90;;;;;;4970508;28;20205;-88
2021/08/28 02:16:34;;;;;;;10.98;3.75;;;16.30;99.90;;;;;;4978746;28;20754;-79
2021/08/28 02:19:10;;;;;;;8.37;3.63;;;16.30;99.90;;;;;;4980412;28;20208;-79
2021/08/28 02:21:38;;;;;;;5.00;3.22;;;16.30;99.90;;;;;;4989470;28;20231;-80
2021/08/28 02:24:07;;;;;;;9.10;3.47;;;16.30;99.90;;;;;;4989761;28;20208;-78
2021/08/28 02:26:39;;;;;;;14.15;4.32;;;16.30;99.90;;;;;;4990880;28;20200;-83
2021/08/28 02:29:11;;;;;;;6.15;3.63;;;16.30;99.90;;;;;;4989419;28;20200;-86
2021/08/28 02:31:41;;;;;;;7.28;3.88;;;16.40;99.90;;;;;;4990578;28;20217;-89
2021/08/28 02:34:12;;;;;;;7.40;3.67;;;16.40;99.90;;;;;;4990727;28;20207;-80
2021/08/28 02:36:41;;;;;;;9.68;3.40;;;16.30;99.90;;;;;;4990759;28;20204;-82
2021/08/28 02:39:10;;;;;;;6.45;3.83;;;16.30;99.90;;;;;;4990088;28;20211;-85
2021/08/28 02:41:38;;;;;;;11.68;3.83;;;16.30;99.90;;;;;;4990651;28;20203;-88
2021/08/28 02:44:07;;;;;;;7.95;3.65;;;16.40;99.90;;;;;;4990857;28;20229;-86
2021/08/28 02:46:36;;;;;;;10.25;3.95;;;16.30;99.90;;;;;;4990648;28;20239;-86
2021/08/28 02:49:06;;;;;;;9.60;4.03;;;16.30;99.90;;;;;;4990634;28;20703;-77
2021/08/28 02:51:36;;;;;;;11.48;4.10;;;16.30;99.90;;;;;;4990862;28;20204;-85
2021/08/28 02:54:03;;;;;;;6.65;3.22;;;16.40;99.90;;;;;;4990942;28;20200;-86
2021/08/28 02:56:33;;;;;;;10.25;3.95;;;16.30;99.90;;;;;;4990116;28;20620;-81
2021/08/28 02:59:00;;;;;;;10.75;3.80;;;16.40;99.90;;;;;;4990118;28;20600;-85
2021/08/28 03:01:28;;;;;;;9.57;4.30;;;16.40;99.90;;;;;;4990184;28;20223;-86
2021/08/28 03:03:56;;;;;;;9.95;3.80;;;16.30;99.90;;;;;;4989528;28;20562;-79
2021/08/28 03:06:26;;;;;;;11.52;4.30;;;16.40;99.90;;;;;;4989336;28;20295;-81
2021/08/28 03:08:55;;;;;;;10.77;4.18;;;16.30;99.90;;;;;;4988930;28;20208;-82
2021/08/28 03:11:22;;;;;;;9.48;4.32;;;16.30;99.90;;;;;;4989819;28;20207;-80
2021/08/28 03:13:49;;;;;;;10.25;4.25;;;16.30;99.90;;;;;;4987153;28;20223;-83
2021/08/28 03:16:18;;;;;;;16.42;4.65;;;16.20;99.90;;;;;;4987684;28;20671;-83
2021/08/28 03:18:47;;;;;;;13.23;4.60;;;16.30;99.90;;;;;;4978145;28;20212;-85
2021/08/28 03:21:14;;;;;;;15.02;4.20;;;16.20;99.90;;;;;;4968214;28;20224;-78
2021/08/28 03:23:45;;;;;;;19.38;5.18;;;16.10;99.90;;;;;;4967203;28;20227;-85
2021/08/28 03:26:16;;;;;;;17.75;6.13;;;16.10;99.90;;;;;;4968382;28;20197;-82
2021/08/28 03:28:44;;;;;;;12.25;4.13;;;16.10;99.90;;;;;;4966839;28;20219;-79
2021/08/28 03:31:12;;;;;;;10.48;4.72;;;16.10;99.90;;;;;;4979854;28;20522;-85
2021/08/28 03:33:40;;;;;;;9.65;3.90;;;16.20;99.90;;;;;;4989134;28;20208;-85
2021/08/28 03:36:07;;;;;;;12.48;4.72;;;16.20;99.90;;;;;;4988762;28;20215;-80
2021/08/28 03:38:35;;;;;;;15.63;4.40;;;16.20;99.90;;;;;;4987807;28;20208;-87
2021/08/28 03:41:02;;;;;;;10.90;4.30;;;16.30;99.90;;;;;;4988602;28;20200;-88
2021/08/28 03:43:32;;;;;;;11.70;4.80;;;16.20;99.90;;;;;;4988827;28;20228;-82
2021/08/28 03:45:59;;;;;;;10.67;3.63;;;16.20;99.90;;;;;;4986815;28;20223;-84
2021/08/28 03:48:26;;;;;;;11.33;4.00;;;16.20;99.90;;;;;;4988486;28;20322;-79
2021/08/28 03:50:54;;;;;;;13.30;4.00;;;16.10;99.90;;;;;;4988304;28;20211;-88
2021/08/28 03:53:21;;;;;;;9.32;4.00;;;16.10;99.90;;;;;;4986989;28;20299;-81
2021/08/28 03:55:47;;;;;;;13.10;4.05;;;16.10;99.90;;;;;;4988559;28;20215;-82
2021/08/28 03:58:14;;;;;;;9.57;3.80;;;16.10;99.90;;;;;;4989166;28;20238;-81
2021/08/28 04:00:42;;;;;;;10.35;3.80;;;16.00;99.90;;;;;;4988614;28;20208;-87
2021/08/28 04:03:09;;;;;;;6.10;3.08;;;16.00;99.90;;;;;;4974794;28;20232;-90
2021/08/28 04:05:36;;;;;;;5.68;3.13;;;16.00;99.90;;;;;;4970186;28;20220;-80
2021/08/28 04:08:03;;;;;;;8.52;3.10;;;15.90;99.90;;;;;;4970959;28;20200;-79
2021/08/28 04:10:30;;;;;;;7.00;3.07;;;15.80;99.90;;;;;;4970515;28;20236;-86
2021/08/28 04:12:57;;;;;;;10.70;3.90;;;15.90;99.90;;;;;;4978427;28;20212;-82
2021/08/28 04:15:23;;;;;;;9.00;3.35;;;15.80;99.90;;;;;;4990450;28;20209;-84
2021/08/28 04:17:51;;;;;;;8.90;3.60;;;15.80;99.90;;;;;;4989264;28;20203;-81
2021/08/28 04:20:18;;;;;;;10.65;3.50;;;15.80;99.90;;;;;;4989637;28;20500;-89
2021/08/28 04:22:45;;;;;;;8.02;3.38;;;15.80;99.90;;;;;;4990905;28;20236;-89
2021/08/28 04:25:12;;;;;;;9.38;3.78;;;15.70;99.90;;;;;;4995535;28;20199;-87
2021/08/28 04:27:39;;;;;;;9.43;4.23;;;15.70;99.90;;;;;;5002794;28;20208;-87
2021/08/28 04:30:07;;;;;;;8.57;3.87;;;15.70;99.90;;;;;;4994566;28;20210;-82
2021/08/28 04:32:35;;;;;;;12.47;4.50;;;15.70;99.90;;;;;;4992513;28;20199;-78
2021/08/28 04:35:03;;;;;;;6.85;3.53;;;15.70;99.90;;;;;;4991172;28;20207;-78
2021/08/28 04:37:30;;;;;;;7.32;3.47;;;15.70;99.90;;;;;;4979119;28;20212;-89
2021/08/28 04:39:57;;;;;;;9.23;3.77;;;15.60;99.90;;;;;;4973478;28;20805;-88
2021/08/28 04:42:23;;;;;;;9.77;3.80;;;15.70;99.90;;;;;;4973735;28;20260;-79
2021/08/28 04:44:53;;;;;;;10.13;3.70;;;15.70;99.90;;;;;;4973314;28;20211;-81
2021/08/28 04:47:20;;;;;;;10.23;3.33;;;15.70;99.90;;;;;;4972864;28;20204;-83
2021/08/28 04:49:47;;;;;;;8.95;4.35;;;15.70;99.90;;;;;;4973443;28;20739;-82
2021/08/28 04:52:15;;;;;;;9.87;4.23;;;15.70;99.90;;;;;;4973204;28;20205;-81
2021/08/28 04:54:42;;;;;;;13.30;4.25;;;15.60;99.90;;;;;;4975515;28;20212;-82
2021/08/28 04:57:09;;;;;;;12.50;4.50;;;15.70;99.90;;;;;;4985407;28;20212;-86
2021/08/28 04:59:36;;;;;;;15.75;5.13;;;15.70;99.90;;;;;;4995526;28;20686;-83
2021/08/28 05:02:04;;;;;;;11.25;4.05;;;15.80;99.90;;;;;;4994539;28;20210;-85
2021/08/28 05:04:31;;;;;;;10.20;4.38;;;15.80;99.90;;;;;;4992748;28;20239;-83
2021/08/28 05:06:58;;;;;;;10.10;4.00;;;15.80;99.90;;;;;;4992601;28;20231;-82
2021/08/28 05:09:27;;;;;;;15.87;5.03;;;15.90;99.90;;;;;;4991053;28;20251;-82
2021/08/28 05:11:53;;;;;;;8.53;4.10;;;15.90;99.90;;;;;;4989664;28;20212;-87
2021/08/28 05:14:20;;;;;;;6.00;3.30;;;15.90;99.90;;;;;;4989843;28;20465;-84
2021/08/28 05:16:47;;;;;;;14.20;5.10;;;15.90;99.90;;;;;;4989731;28;20211;-86
2021/08/28 05:19:14;;;;;;;13.43;5.60;;;15.90;99.90;;;;;;4991862;28;20196;-86
2021/08/28 05:21:41;;;;;;;10.27;4.40;;;16.00;99.90;;;;;;4991906;28;20204;-85
2021/08/28 05:24:08;;;;;;;14.13;5.23;;;16.00;99.90;;;;;;4990094;28;20233;-86
2021/08/28 05:26:36;;;;;;;9.20;4.27;;;16.10;99.90;;;;;;4989690;28;20528;-84
2021/08/28 05:29:03;;;;;;;13.90;5.27;;;16.10;99.90;;;;;;4989088;28;20207;-85
2021/08/28 05:31:29;;;;;;;11.10;4.80;;;16.10;99.90;;;;;;4990191;28;20204;-87
2021/08/28 05:33:58;;;;;;;11.63;4.80;;;16.20;99.90;;;;;;4981343;28;20601;-84
2021/08/28 05:36:24;;;;;;;14.45;5.35;;;16.20;99.90;;;;;;4969400;28;20945;-85
2021/08/28 05:38:53;;;;;;;14.88;4.50;;;16.30;99.90;;;;;;4969541;28;20227;-84
2021/08/28 05:41:19;;;;;;;13.00;4.43;;;16.30;99.90;;;;;;4970641;28;20208;-83
2021/08/28 05:43:48;;;;;;;10.20;4.17;;;16.30;99.90;;;;;;4971952;28;20278;-84
2021/08/28 05:46:14;;;;;;;15.57;5.53;;;16.40;99.90;;;;;;4972746;28;20634;-85
2021/08/28 05:48:42;;;;;;;17.02;5.28;;;16.40;99.90;;;;;;4971484;28;20243;-80
2021/08/28 05:51:08;;;;;;;12.73;5.28;;;16.50;99.90;;;;;;4973938;28;20197;-86
2021/08/28 05:53:35;;;;;;;19.45;5.10;;;16.50;99.90;;;;;;4990737;28;20208;-86
2021/08/28 05:56:02;;;;;;;14.35;4.85;;;16.50;99.90;;;;;;4990043;28;20207;-82
2021/08/28 05:58:29;;;;;;;17.45;5.28;;;16.60;99.90;;;;;;4988893;28;20384;-85
2021/08/28 06:00:58;;;;;;;9.88;5.07;;;16.60;99.90;;;;;;4988797;28;20196;-85
2021/08/28 06:03:25;;;;;;;12.93;5.35;;;16.60;99.90;;;;;;4983587;28;20220;-85
2021/08/28 06:05:51;;;;;;;10.82;4.82;;;16.60;99.90;;;;;;4969347;28;20197;-82
2021/08/28 06:08:18;;;;;;;11.95;4.97;;;16.70;99.90;;;;;;4989892;28;20212;-81
2021/08/28 06:10:45;;;;;;;12.52;4.45;;;16.70;99.90;;;;;;5002176;28;20240;-81
2021/08/28 06:13:12;;;;;;;13.75;4.68;;;16.70;99.90;;;;;;4980332;28;20240;-90
2021/08/28 06:15:39;;;;;;;12.55;4.80;;;16.80;99.90;;;;;;4972091;28;20208;-84
2021/08/28 06:18:07;;;;;;;12.05;5.15;;;16.80;99.90;;;;;;4972418;28;20274;-81
2021/08/28 06:20:34;;;;;;;14.23;5.25;;;16.90;99.90;;;;;;4972938;28;20192;-83
2021/08/28 06:23:01;;;;;;;14.70;4.35;;;16.90;99.90;;;;;;4974771;28;20236;-86
2021/08/28 06:25:28;;;;;;;14.70;4.93;;;17.00;99.90;;;;;;4990893;28;20215;-83
2021/08/28 06:27:55;;;;;;;12.60;4.38;;;17.00;99.90;;;;;;4990452;28;20212;-87
2021/08/28 06:30:21;;;;;;;13.23;3.97;;;17.10;99.90;;;;;;4992135;28;20196;-86
2021/08/28 06:32:48;;;;;;;15.25;5.22;;;17.20;99.90;;;;;;4978801;28;20217;-89
2021/08/28 06:35:16;;;;;;;14.85;4.57;;;17.20;99.90;;;;;;4970839;28;20197;-85
2021/08/28 06:37:43;;;;;;;16.45;4.88;;;17.30;99.90;;;;;;4979600;28;20215;-81
2021/08/28 06:40:10;;;;;;;9.63;4.30;;;17.30;99.90;;;;;;4991873;28;20227;-83
2021/08/28 06:42:37;;;;;;;14.80;4.78;;;17.40;99.90;;;;;;4990439;28;20219;-81
2021/08/28 06:45:40;;;;;;;11.23;4.22;;;17.40;99.90;;;;;;4945035;28;20303;-78
2021/08/28 06:48:08;;;;;;;8.90;4.00;;;17.50;99.90;;;;;;4971903;28;20220;-87
2021/08/28 06:50:37;;;;;;;15.40;4.60;;;17.50;99.90;;;;;;4970210;28;20211;-81
2021/08/28 06:53:04;;;;;;;9.63;4.03;;;17.60;99.90;;;;;;4970189;28;20239;-82
2021/08/28 06:55:31;;;;;;;11.48;3.95;;;17.70;99.90;;;;;;4971597;28;20217;-88
2021/08/28 06:57:57;;;;;;;12.20;5.00;;;17.80;99.90;;;;;;4970051;28;20904;-83
2021/08/28 07:00:24;;;;;;;11.18;4.13;;;17.80;99.90;;;;;;4971617;28;20209;-86
2021/08/28 07:06:47;;;;;;;11.38;4.45;;;17.80;99.90;;;;;;4953098;28;20214;-82
2021/08/28 07:09:14;;;;;;;12.65;4.38;;;17.80;99.90;;;;;;4969470;28;20228;-81
2021/08/28 07:11:41;;;;;;;10.38;4.10;;;18.00;99.90;;;;;;4970226;28;20197;-79
2021/08/28 07:14:08;;;;;;;14.60;4.15;;;18.00;99.90;;;;;;4969871;28;20209;-81
2021/08/28 07:16:34;;;;;;;13.48;4.53;;;18.10;99.90;;;;;;4975655;28;20306;-77
2021/08/28 07:19:01;;;;;;;8.95;4.55;;;18.20;99.90;;;;;;4988852;28;20485;-84
2021/08/28 07:21:28;;;;;;;7.50;3.58;;;18.20;99.90;;;;;;4982161;28;20531;-80
2021/08/28 07:23:56;;;;;;;12.13;3.92;;;18.40;99.90;;;;;;4968490;28;20232;-84
2021/08/28 07:26:23;;;;;;;11.02;3.88;;;18.60;99.90;;;;;;4968805;28;20510;-82
2021/08/28 07:28:51;;;;;;;9.25;3.78;;;18.80;99.90;;;;;;4974532;28;20207;-84
2021/08/28 07:31:18;;;;;;;9.43;4.10;;;19.00;99.90;;;;;;4986470;28;20247;-85
2021/08/28 07:33:45;;;;;;;7.65;3.75;;;19.10;99.90;;;;;;4985539;28;20512;-83
2021/08/28 07:36:12;;;;;;;9.95;3.72;;;19.10;99.90;;;;;;4991427;28;20207;-81
2021/08/28 07:38:38;;;;;;;8.70;3.53;;;19.10;99.90;;;;;;4990007;28;20634;-78
2021/08/28 07:41:07;;;;;;;9.80;4.10;;;19.10;99.90;;;;;;4986597;28;20823;-79
2021/08/28 07:43:33;;;;;;;6.43;3.70;;;19.30;99.90;;;;;;4983426;28;20641;-79
2021/08/28 07:46:01;;;;;;;9.93;4.18;;;19.20;99.90;;;;;;4967797;28;20208;-82
2021/08/28 07:48:27;;;;;;;7.13;3.60;;;19.20;99.90;;;;;;4973339;28;20240;-83
2021/08/28 07:50:54;;;;;;;9.13;3.72;;;19.30;99.90;;;;;;4987187;28;20215;-79
2021/08/28 07:53:21;;;;;;;9.68;4.22;;;19.20;99.90;;;;;;4972510;28;20215;-83
2021/08/28 07:55:48;;;;;;;7.85;3.65;;;19.20;99.90;;;;;;4972457;28;20223;-80
2021/08/28 07:58:16;;;;;;;6.80;3.40;;;19.30;99.90;;;;;;4986266;28;20207;-79
2021/08/28 08:00:43;;;;;;;12.52;4.43;;;19.40;99.90;;;;;;4984651;28;20219;-79
2021/08/28 08:03:10;;;;;;;9.75;4.15;;;19.70;99.90;;;;;;4967209;28;20197;-87
2021/08/28 08:05:36;;;;;;;10.10;3.95;;;20.00;99.90;;;;;;4967652;28;20205;-84
2021/08/28 08:08:03;;;;;;;6.78;4.50;;;20.30;99.90;;;;;;4966330;28;20213;-83
2021/08/28 08:10:30;;;;;;;8.23;3.90;;;20.50;99.90;;;;;;4977128;28;20672;-84
2021/08/28 08:12:57;;;;;;;7.68;4.13;;;20.70;99.90;;;;;;4986068;28;20211;-84
2021/08/28 08:15:27;;;;;;;9.70;4.40;;;20.60;99.90;;;;;;4977771;28;20212;-88
2021/08/28 08:17:54;;;;;;;6.65;4.03;;;20.30;99.90;;;;;;4968076;28;20205;-82
2021/08/28 08:20:21;;;;;;;9.25;3.65;;;20.20;99.90;;;;;;4971148;28;20604;-87
2021/08/28 08:22:48;;;;;;;11.38;3.80;;;20.00;99.90;;;;;;4986838;28;20214;-79
2021/08/28 08:25:14;;;;;;;6.03;3.45;;;20.00;99.90;;;;;;4973398;28;20232;-86
2021/08/28 08:27:41;;;;;;;13.20;4.20;;;19.80;99.90;;;;;;4968357;28;20711;-80
2021/08/28 08:30:09;;;;;;;8.45;3.60;;;19.70;99.90;;;;;;4968557;28;20205;-80
2021/08/28 08:32:37;;;;;;;7.18;4.00;;;19.60;99.90;;;;;;4968777;28;20270;-80
2021/08/28 08:35:05;;;;;;;9.10;4.10;;;19.40;99.90;;;;;;4971647;28;20212;-86
2021/08/28 08:37:32;;;;;;;8.50;4.10;;;19.40;99.90;;;;;;4988155;28;20208;-83
2021/08/28 08:39:58;;;;;;;7.45;4.43;;;19.80;99.90;;;;;;4988140;28;20204;-83
2021/08/28 08:42:27;;;;;;;13.52;3.90;;;20.10;99.90;;;;;;4986907;28;20211;-80
2021/08/28 08:44:54;;;;;;;10.88;3.78;;;20.30;99.90;;;;;;4982594;28;20235;-77
2021/08/28 08:47:24;;;;;;;11.70;3.88;;;20.60;99.90;;;;;;4966345;28;20208;-80
2021/08/28 08:49:53;;;;;;;5.75;3.55;;;20.90;99.90;;;;;;4963646;28;20248;-81
2021/08/28 08:52:21;;;;;;;4.80;3.08;;;21.00;99.90;;;;;;4979284;28;20235;-85
2021/08/28 08:54:49;;;;;;;6.75;3.28;;;21.40;99.90;;;;;;4988363;28;20513;-88
2021/08/28 08:57:17;;;;;;;8.48;3.78;;;21.60;99.90;;;;;;4989016;28;20604;-81
2021/08/28 08:59:44;;;;;;;8.63;3.10;;;21.30;99.90;;;;;;4989387;28;20216;-83
2021/08/28 09:02:11;;;;;;;5.60;3.35;;;21.00;99.90;;;;;;4989323;28;20199;-82
2021/08/28 09:04:37;;;;;;;5.95;3.17;;;20.60;99.90;;;;;;4988924;28;20238;-81
2021/08/28 09:07:12;;;;;;;10.48;3.58;;;20.50;99.90;;;;;;4989586;28;20250;-82
2021/08/28 09:09:38;;;;;;;6.63;3.33;;;20.60;99.90;;;;;;4988771;28;20328;-81
2021/08/28 09:12:11;;;;;;;9.20;3.80;;;20.80;99.90;;;;;;4990676;28;20208;-81
2021/08/28 09:14:38;;;;;;;5.90;3.15;;;21.30;99.90;;;;;;4993654;28;20320;-85
2021/08/28 09:17:15;;;;;;;6.72;3.72;;;21.70;99.90;;;;;;4993317;28;20214;-87
2021/08/28 09:19:43;;;;;;;9.25;3.20;;;21.50;99.90;;;;;;4980849;28;20203;-79
2021/08/28 09:22:22;;;;;;;9.25;3.83;;;21.20;99.90;;;;;;4975499;28;20217;-82
2021/08/28 09:24:49;;;;;;;9.77;3.63;;;21.00;99.90;;;;;;4991023;28;20639;-86
2021/08/28 09:27:32;;;;;;;6.40;3.17;;;20.90;99.90;;;;;;4992777;28;20208;-84
2021/08/28 09:29:59;;;;;;;9.52;3.28;;;21.10;99.90;;;;;;4980613;28;20208;-85
2021/08/28 09:32:26;;;;;;;7.40;3.58;;;21.50;99.90;;;;;;4972328;28;20554;-83
2021/08/28 09:34:52;;;;;;;8.88;2.97;;;21.50;99.90;;;;;;4973759;28;20201;-81
2021/08/28 09:37:30;;;;;;;7.97;3.10;;;21.70;99.90;;;;;;4984070;28;20215;-82
2021/08/28 09:40:00;;;;;;;6.80;3.05;;;22.00;99.90;;;;;;4991982;28;20203;-81
2021/08/28 09:42:27;;;;;;;7.45;3.58;;;22.30;99.90;;;;;;4992701;28;20589;-84
2021/08/28 09:44:55;;;;;;;9.63;3.40;;;22.30;99.90;;;;;;4990994;28;20228;-86
2021/08/28 09:47:24;;;;;;;7.72;3.58;;;22.30;99.90;;;;;;4999556;28;20209;-79
2021/08/28 09:49:53;;;;;;;9.05;3.50;;;22.00;99.90;;;;;;5001601;28;20216;-86
2021/08/28 09:52:23;;;;;;;6.68;2.88;;;21.90;99.90;;;;;;4973289;28;20213;-85
2021/08/28 09:54:51;;;;;;;6.90;3.00;;;21.80;99.90;;;;;;4972328;28;20200;-86
2021/08/28 09:57:18;;;;;;;4.53;3.05;;;21.80;99.90;;;;;;4982630;28;20218;-82
2021/08/28 09:59:46;;;;;;;6.18;3.17;;;21.80;99.90;;;;;;4989287;28;20208;-87
2021/08/28 10:02:15;;;;;;;8.50;3.42;;;21.90;99.90;;;;;;4990246;28;20208;-88
2021/08/28 10:04:54;;;;;;;5.60;2.90;;;22.20;99.90;;;;;;4988738;28;20228;-81
2021/08/28 10:07:24;;;;;;;7.18;3.00;;;22.20;99.90;;;;;;4989354;28;20311;-86
2021/08/28 10:09:56;;;;;;;8.55;3.00;;;22.00;99.90;;;;;;4991707;28;20244;-84
2021/08/28 10:12:24;;;;;;;6.05;2.92;;;21.80;99.90;;;;;;4990887;28;20223;-87
2021/08/28 10:14:54;;;;;;;8.13;3.17;;;21.60;99.90;;;;;;4990690;28;20218;-82
2021/08/28 10:17:22;;;;;;;6.97;3.17;;;21.70;99.90;;;;;;4990965;28;20204;-86
2021/08/28 10:19:52;;;;;;;6.13;2.80;;;21.90;99.90;;;;;;4989505;28;20210;-84
2021/08/28 10:22:22;;;;;;;4.15;2.60;;;21.90;99.90;;;;;;4990295;28;20208;-88
2021/08/28 10:24:53;;;;;;;7.45;3.13;;;21.60;99.90;;;;;;4990362;28;20235;-82
2021/08/28 10:27:22;;;;;;;4.65;2.60;;;21.50;99.90;;;;;;4988424;28;20604;-81
2021/08/28 10:29:49;;;;;;;8.02;2.97;;;21.70;99.90;;;;;;4986496;28;20869;-89
2021/08/28 10:32:16;;;;;;;5.60;3.03;;;22.00;99.90;;;;;;4988778;28;20208;-79
2021/08/28 10:34:44;;;;;;;6.53;3.08;;;22.40;99.90;;;;;;4987239;28;20200;-81
2021/08/28 10:37:11;;;;;;;7.78;3.33;;;22.50;99.90;;;;;;4988783;28;20243;-81
2021/08/28 10:39:39;;;;;;;5.60;3.03;;;22.50;99.90;;;;;;4977155;28;20208;-83
2021/08/28 10:42:08;;;;;;;4.70;2.85;;;22.70;99.90;;;;;;4968885;28;20207;-79
2021/08/28 10:44:35;;;;;;;5.15;3.33;;;22.70;99.90;;;;;;4968294;28;20220;-81
2021/08/28 10:47:05;;;;;;;4.65;2.83;;;22.70;99.90;;;;;;4967166;28;20204;-78
2021/08/28 10:49:32;;;;;;;7.47;3.72;;;22.60;99.90;;;;;;4968653;28;20260;-79
2021/08/28 10:52:01;;;;;;;6.63;3.05;;;22.40;99.90;;;;;;4968506;28;20204;-79
2021/08/28 10:54:30;;;;;;;8.73;3.42;;;22.20;99.90;;;;;;4968724;28;20193;-82
2021/08/28 10:57:01;;;;;;;6.75;3.13;;;22.20;99.90;;;;;;4973559;28;20215;-80
2021/08/28 10:59:29;;;;;;;5.20;2.80;;;22.00;99.90;;;;;;4989024;28;20207;-81
2021/08/28 11:02:02;;;;;;;4.07;2.60;;;22.10;99.90;;;;;;4970597;28;20219;-83
2021/08/28 11:04:34;;;;;;;6.57;2.97;;;22.20;99.90;;;;;;4969210;28;20224;-83
2021/08/28 11:07:40;;;;;;;4.82;3.00;;;22.20;99.90;;;;;;4969498;28;20211;-86
2021/08/28 11:10:13;;;;;;;6.47;3.00;;;22.30;99.90;;;;;;4917841;29;20389;-80
2021/08/28 11:12:49;;;;;;;7.82;2.83;;;22.10;99.90;;;;;;4980327;28;20206;-86
2021/08/28 11:15:44;;;;;;;10.68;3.67;;;22.00;99.90;;;;;;4989242;28;20644;-84
2021/08/28 11:18:13;;;;;;;4.43;2.88;;;22.10;99.90;;;;;;4988581;28;20192;-79
2021/08/28 11:20:42;;;;;;;5.88;3.60;;;22.20;99.90;;;;;;4970052;28;20221;-80
2021/08/28 11:23:12;;;;;;;6.75;2.97;;;22.20;99.90;;;;;;4968117;28;20219;-79
2021/08/28 11:25:41;;;;;;;6.35;2.90;;;22.10;99.90;;;;;;4967370;28;20225;-85
2021/08/28 11:28:10;;;;;;;7.43;3.28;;;21.80;99.90;;;;;;4967351;28;20213;-80
2021/08/28 11:30:57;;;;;;;5.10;2.67;;;21.80;99.90;;;;;;4967283;28;20219;-85
2021/08/28 11:33:28;;;;;;;6.43;2.97;;;21.60;99.90;;;;;;4984074;28;20214;-89
2021/08/28 11:35:57;;;;;;;5.25;3.00;;;21.60;99.90;;;;;;4993577;28;20203;-81
2021/08/28 11:38:38;;;;;;;9.30;3.30;;;21.70;99.90;;;;;;4987479;28;20271;-79
2021/08/28 11:41:08;;;;;;;5.60;2.90;;;21.70;99.90;;;;;;4988615;28;20214;-81
2021/08/28 11:43:38;;;;;;;9.10;3.40;;;21.70;99.90;;;;;;4988181;28;20738;-84
2021/08/28 11:46:08;;;;;;;5.75;2.88;;;21.60;99.90;;;;;;4982955;28;20216;-87
2021/08/28 11:48:37;;;;;;;8.20;3.38;;;21.60;99.90;;;;;;4980774;28;20235;-83
2021/08/28 11:51:09;;;;;;;7.15;2.88;;;21.60;99.90;;;;;;4985786;28;20199;-90
2021/08/28 11:53:39;;;;;;;5.20;2.17;;;21.90;99.90;;;;;;4986345;28;20572;-90
2021/08/28 11:56:08;;;;;;;6.18;2.88;;;22.10;99.90;;;;;;4986292;28;20243;-80
2021/08/28 11:58:50;;;;;;;5.85;2.83;;;22.30;99.90;;;;;;4986185;28;20211;-84
2021/08/28 12:01:28;;;;;;;5.30;2.72;;;22.30;99.90;;;;;;4986492;28;20195;-83
2021/08/28 12:03:58;;;;;;;5.50;2.80;;;22.40;99.90;;;;;;4988002;28;20196;-85
2021/08/28 12:06:25;;;;;;;4.75;3.22;;;22.40;99.90;;;;;;4985299;28;20271;-87
2021/08/28 12:08:53;;;;;;;6.88;2.75;;;22.40;99.90;;;;;;4985750;28;20204;-88
2021/08/28 12:11:23;;;;;;;4.28;2.50;;;22.60;99.90;;;;;;4985871;28;20235;-91
2021/08/28 12:13:53;;;;;;;3.92;2.40;;;23.00;99.90;;;;;;4988346;28;20338;-88
2021/08/28 12:16:24;;;;;;;6.53;2.75;;;23.10;99.90;;;;;;4988055;28;20203;-83
2021/08/28 12:19:02;;;;;;;8.07;2.88;;;23.00;99.90;;;;;;4987745;28;20235;-90
2021/08/28 12:21:31;;;;;;;8.13;3.08;;;23.10;99.90;;;;;;4990339;28;20196;-87
2021/08/28 12:24:12;;;;;;;5.57;2.47;;;23.20;99.90;;;;;;4988816;28;20203;-82
2021/08/28 12:26:39;;;;;;;6.82;2.58;;;23.20;99.90;;;;;;4988332;28;20235;-87
2021/08/28 12:29:07;;;;;;;7.22;2.50;;;23.00;99.90;;;;;;4988084;28;20219;-80
2021/08/28 12:31:34;;;;;;;5.93;2.50;;;22.70;99.90;;;;;;4989389;28;20235;-84
2021/08/28 12:34:02;;;;;;;5.10;2.78;;;22.80;99.90;;;;;;4987668;28;20211;-84
2021/08/28 12:36:30;;;;;;;6.50;2.72;;;23.00;99.90;;;;;;4988000;28;20207;-86
2021/08/28 12:39:06;;;;;;;5.50;2.88;;;22.80;99.90;;;;;;4987482;28;20239;-81
2021/08/28 12:41:34;;;;;;;8.02;3.15;;;22.80;99.90;;;;;;4987010;28;20188;-80
2021/08/28 12:44:01;;;;;;;5.97;2.63;;;22.80;99.90;;;;;;4986677;28;20236;-83
2021/08/28 12:46:29;;;;;;;4.63;2.78;;;22.70;99.90;;;;;;4990067;28;20231;-87
2021/08/28 12:49:10;;;;;;;6.43;3.10;;;22.60;99.90;;;;;;4989349;28;20231;-83
2021/08/28 12:51:37;;;;;;;7.82;3.08;;;22.60;99.90;;;;;;4990722;28;20211;-82
2021/08/28 12:54:05;;;;;;;7.63;2.88;;;22.70;99.90;;;;;;4992156;28;20207;-84